Airport View

Enter AWOS ICAO identifier for current METAR.

ex. KFNL

KLHZ 300455Z AUTO 21008KT 10SM SCT018 BKN023 OVC042 23/21 A2954 RMK AO2

30 Oct 2020 04:59

Frequency: 118.325

Phone: 919-497-0810

Other Area AWOS: KHNZ - KRWI - KRDU - KJNX

TAF AMD KRWI 300427Z 3004/3024 20012G19KT P6SM BKN020 TEMPO 3006/3009 VRB15G35KT 2SM TSRA BKN025CB FM300900 26012G25KT P6SM BKN025 FM301300 31012G20KT P6SM SCT025